Portada
METAR-TAF:

METAR-TAF

Aeroports :

Aeroport d'Innsbruck

Innsbruck, Àustria

latitud: 47-16N, longitud: 011-21E, altitud: 581 m

Observació

L'informe es va fer fa 32 minuts, a les 23:50 UTC
Vent 2 kt amb direcció variable
Temperatura 6°C
Humitat 65%
Pressió 1020 hPa
Visibilitat 10 km o més
Escasses núvols a una alçada de 6000 ft
Cel ennuvolat a una alçada de 8000 ft

METAR: LOWI 032350Z AUTO VRB02KT 9999 FEW060 BKN080 06/M00 Q1020

Hora: 02:22 (00:22 UTC)

Pronòstic

L'informe es va fer fa 1 hora i 7 minuts, a les 23:15 UTC
Pronòstic vàlid del 04 a les 00 UTC al 04 a les 24 UTC
Vent 2 kt amb direcció variable
Visibilitat 10 km o més
Escasses núvols a una alçada de 7000 ft
Temporalment
l' 04 a les 12 UTC al 04 a les 18 UTC
Vent 10 kt del Est

TAF: LOWI 032315Z 0400/0424 VRB02KT 9999 FEW070 TX16/0415Z TN03/0404Z TEMPO 0412/0418 09010KT

Observacions i pronòstics meteorològics de més de 4000 aeroports (METAR i TAF).

Les estacions disponibles són els punts grocs i vermells al mapa.

Posi el ratolí al punt desitjat per veure el nom de l'estació.

Feu clic per veure les observacions i els pronòstics meteorològics.

Per canviar el mapa: feu clic els botons verds amb una creu de color negre per apropar; al botó verd amb un guió per allunyar la imatge; o en les fletxes verdes per a mapes adjacents.


METAR-TAF: